createdAt,value
2019-03-20T00:02:18.767Z,101927.98
2019-03-20T00:04:50.198Z,101927.52
2019-03-20T00:07:20.931Z,101927.16
2019-03-20T00:09:52.847Z,101938.73
2019-03-20T00:12:23.528Z,101935.77
2019-03-20T00:14:54.290Z,101931.23
2019-03-20T00:17:24.983Z,101932.83
2019-03-20T00:19:55.864Z,101931.70
2019-03-20T00:22:26.961Z,101930.92
2019-03-20T00:24:57.661Z,101935.09
2019-03-20T00:27:28.301Z,101936.27
2019-03-20T00:29:59.246Z,101930.97
2019-03-20T00:32:29.967Z,101938.05
2019-03-20T00:35:01.505Z,101939.58
2019-03-20T00:37:32.625Z,101938.53
2019-03-20T00:40:04.301Z,101946.39
2019-03-20T00:42:35.579Z,101941.45
2019-03-20T00:45:11.925Z,101946.48
2019-03-20T00:47:42.867Z,101947.60
2019-03-20T00:50:18.872Z,101947.86
2019-03-20T00:52:49.766Z,101952.13
2019-03-20T00:55:20.984Z,101951.92
2019-03-20T00:57:51.640Z,101950.75
2019-03-20T01:00:25.761Z,101949.34
2019-03-20T01:02:56.414Z,101946.54
2019-03-20T01:05:27.091Z,101949.00
2019-03-20T01:07:58.087Z,101945.70
2019-03-20T01:10:28.733Z,101944.17
2019-03-20T01:12:59.417Z,101942.31
2019-03-20T01:15:30.104Z,101942.73
2019-03-20T01:18:00.775Z,101939.77
2019-03-20T01:20:31.698Z,101936.77
2019-03-20T01:23:02.635Z,101938.86
2019-03-20T01:25:35.133Z,101933.36
2019-03-20T01:28:05.996Z,101939.98
2019-03-20T01:30:40.350Z,101938.37
2019-03-20T01:33:15.046Z,101939.41
2019-03-20T01:35:45.716Z,101935.66
2019-03-20T01:38:16.667Z,101938.86
2019-03-20T01:40:47.317Z,101938.24
2019-03-20T01:43:17.990Z,101939.67
2019-03-20T01:45:48.666Z,101934.66
2019-03-20T01:48:19.347Z,101942.11
2019-03-20T01:50:50.018Z,101935.58
2019-03-20T01:53:20.701Z,101946.46
2019-03-20T01:55:51.370Z,101943.89
2019-03-20T01:58:22.294Z,101947.67
2019-03-20T02:00:53.230Z,101935.97
2019-03-20T02:03:24.196Z,101937.49
2019-03-20T02:05:55.244Z,101943.50
2019-03-20T02:08:27.201Z,101943.30
2019-03-20T02:10:57.979Z,101943.30
2019-03-20T02:13:28.612Z,101943.66
2019-03-20T02:15:59.283Z,101947.52
2019-03-20T02:18:30.235Z,101955.55
2019-03-20T02:21:01.140Z,101957.20
2019-03-20T02:23:32.116Z,101958.70
2019-03-20T02:26:02.759Z,101959.99
2019-03-20T02:28:33.463Z,101960.63
2019-03-20T02:31:04.216Z,101956.28
2019-03-20T02:33:34.887Z,101960.49
2019-03-20T02:36:05.583Z,101967.09
2019-03-20T02:38:36.235Z,101959.64
2019-03-20T02:41:06.989Z,101966.42
2019-03-20T02:43:37.708Z,101965.56
2019-03-20T02:46:08.422Z,101967.67
2019-03-20T02:48:39.086Z,101969.09
2019-03-20T02:51:09.813Z,101966.45
2019-03-20T02:53:40.468Z,101969.77
2019-03-20T02:56:11.145Z,101970.59
2019-03-20T02:58:41.828Z,101972.98
2019-03-20T03:01:13.022Z,101970.98
2019-03-20T03:03:44.370Z,101964.02
2019-03-20T03:06:15.589Z,101972.74
2019-03-20T03:08:46.277Z,101976.31
2019-03-20T03:11:17.205Z,101974.77
2019-03-20T03:13:47.887Z,101976.74
2019-03-20T03:16:18.990Z,101982.87
2019-03-20T03:18:49.624Z,101987.47
2019-03-20T03:21:20.392Z,101991.27
2019-03-20T03:23:52.085Z,101990.69
2019-03-20T03:26:22.936Z,101997.75
2019-03-20T03:28:53.622Z,102004.65
2019-03-20T03:31:24.319Z,101992.64
2019-03-20T03:33:54.994Z,101998.22
2019-03-20T03:36:26.127Z,102003.30
2019-03-20T03:38:57.057Z,102006.39
2019-03-20T03:41:28.110Z,102012.18
2019-03-20T03:43:58.780Z,102005.69
2019-03-20T03:46:29.459Z,102000.70
2019-03-20T03:49:00.415Z,102007.61
2019-03-20T03:51:32.059Z,102012.80
2019-03-20T03:54:04.016Z,102017.44
2019-03-20T03:56:34.714Z,102017.44
2019-03-20T03:59:05.717Z,102018.05
2019-03-20T04:01:36.392Z,102011.69
2019-03-20T04:04:07.052Z,102018.03
2019-03-20T04:06:37.989Z,102016.93
2019-03-20T04:09:08.747Z,102021.80
2019-03-20T04:11:39.433Z,102023.58
2019-03-20T04:14:10.398Z,102028.52
2019-03-20T04:16:41.339Z,102035.34
2019-03-20T04:19:12.010Z,102031.64
2019-03-20T04:21:42.694Z,102029.52
2019-03-20T04:24:13.362Z,102036.66
2019-03-20T04:26:44.038Z,102041.89
2019-03-20T04:29:14.739Z,102045.96
2019-03-20T04:31:45.394Z,102045.45
2019-03-20T04:34:16.349Z,102046.91
2019-03-20T04:36:48.176Z,102043.21
2019-03-20T04:39:19.074Z,102043.02
2019-03-20T04:41:49.755Z,102043.32
2019-03-20T04:44:20.428Z,102050.02
2019-03-20T04:46:51.206Z,102057.00
2019-03-20T04:49:21.961Z,102055.64
2019-03-20T04:51:52.660Z,102055.08
2019-03-20T04:54:23.601Z,102058.45
2019-03-20T04:56:55.356Z,102058.45
2019-03-20T04:59:26.343Z,102055.68
2019-03-20T05:01:57.029Z,102066.16
2019-03-20T05:04:28.017Z,102068.13
2019-03-20T05:06:59.434Z,102067.16
2019-03-20T05:09:30.242Z,102075.94
2019-03-20T05:12:00.930Z,102078.20
2019-03-20T05:14:31.706Z,102077.74
2019-03-20T05:17:02.712Z,102080.14
2019-03-20T05:19:33.640Z,102082.72
2019-03-20T05:22:04.690Z,102079.84
2019-03-20T05:24:35.659Z,102084.34
2019-03-20T05:27:07.667Z,102080.39
2019-03-20T05:29:38.330Z,102091.08
2019-03-20T05:32:09.367Z,102093.30
2019-03-20T05:34:40.172Z,102098.00
2019-03-20T05:37:11.015Z,102100.75
2019-03-20T05:39:42.213Z,102100.75
2019-03-20T05:42:12.881Z,102099.77
2019-03-20T05:44:43.846Z,102096.85
2019-03-20T05:47:14.641Z,102104.09
2019-03-20T05:49:45.317Z,102102.38
2019-03-20T05:52:16.374Z,102106.89
2019-03-20T05:54:47.051Z,102114.79
2019-03-20T05:57:17.776Z,102110.67
2019-03-20T05:59:51.649Z,102116.09
2019-03-20T06:02:22.819Z,102117.54
2019-03-20T06:04:53.553Z,102123.42
2019-03-20T06:07:24.427Z,102113.47
2019-03-20T06:09:55.150Z,102112.20
2019-03-20T06:12:27.839Z,102129.70
2019-03-20T06:14:58.612Z,102135.99
2019-03-20T06:17:29.320Z,102136.48
2019-03-20T06:20:00.021Z,102139.06
2019-03-20T06:22:30.812Z,102138.87
2019-03-20T06:25:01.833Z,102149.14
2019-03-20T06:27:32.859Z,102147.27
2019-03-20T06:30:05.242Z,102151.62
2019-03-20T06:32:35.922Z,102156.23
2019-03-20T06:35:08.894Z,102154.30
2019-03-20T06:37:39.576Z,102156.94
2019-03-20T06:40:13.818Z,102157.88
2019-03-20T06:42:44.555Z,102159.67
2019-03-20T06:45:19.268Z,102155.63
2019-03-20T06:47:49.944Z,102157.57
2019-03-20T06:50:22.968Z,102155.92
2019-03-20T06:52:53.657Z,102150.05
2019-03-20T06:55:24.389Z,102156.31
2019-03-20T06:57:55.378Z,102158.95
2019-03-20T07:00:55.936Z,102156.02
2019-03-20T07:03:43.450Z,102156.08
2019-03-20T07:06:21.210Z,102154.59
2019-03-20T07:09:11.134Z,102157.62
2019-03-20T07:11:41.961Z,102166.70
2019-03-20T07:14:12.991Z,102173.59
2019-03-20T07:16:43.951Z,102173.81
2019-03-20T07:19:14.624Z,102172.79
2019-03-20T07:21:45.591Z,102174.34
2019-03-20T07:24:16.618Z,102177.47
2019-03-20T07:26:47.679Z,102178.80
2019-03-20T07:29:18.727Z,102180.73
2019-03-20T07:31:49.762Z,102191.02
2019-03-20T07:38:34.365Z,102188.88
2019-03-20T07:41:05.366Z,102193.56
2019-03-20T07:43:36.299Z,102195.57
2019-03-20T07:46:07.527Z,102193.66
2019-03-20T07:48:40.619Z,102196.45
2019-03-20T07:51:10.688Z,102198.11
2019-03-20T07:53:41.368Z,102207.68
2019-03-20T07:56:12.294Z,102206.72
2019-03-20T07:58:43.028Z,102203.17
2019-03-20T08:01:13.695Z,102211.97
2019-03-20T08:03:44.382Z,102204.13
2019-03-20T08:06:15.317Z,102205.75
2019-03-20T08:08:46.097Z,102204.67
2019-03-20T08:11:16.744Z,102201.95
2019-03-20T08:13:47.436Z,102210.84
2019-03-20T08:16:18.155Z,102200.70
2019-03-20T08:18:49.104Z,102206.48
2019-03-20T08:21:20.071Z,102211.70
2019-03-20T08:23:50.722Z,102208.86
2019-03-20T08:26:21.402Z,102212.38
2019-03-20T08:28:52.344Z,102206.41
2019-03-20T08:31:23.305Z,102198.93
2019-03-20T08:33:54.446Z,102199.50
2019-03-20T08:36:25.107Z,102195.89
2019-03-20T08:38:56.015Z,102195.70
2019-03-20T08:41:26.693Z,102198.75
2019-03-20T08:43:57.372Z,102208.38
2019-03-20T08:46:28.315Z,102202.06
2019-03-20T08:48:59.240Z,102204.57
2019-03-20T08:51:29.948Z,102201.50
2019-03-20T08:54:00.850Z,102209.42
2019-03-20T08:56:31.510Z,102208.83
2019-03-20T08:59:02.158Z,102208.17
2019-03-20T09:01:33.088Z,102203.13
2019-03-20T09:04:04.065Z,102183.00
2019-03-20T09:06:35.024Z,102205.66
2019-03-20T09:09:08.467Z,102206.89
2019-03-20T09:11:39.249Z,102209.77
2019-03-20T09:14:10.192Z,102207.12
2019-03-20T09:16:41.016Z,102204.20
2019-03-20T09:19:11.700Z,102199.28
2019-03-20T09:21:42.800Z,102202.95
2019-03-20T09:24:13.806Z,102207.92
2019-03-20T09:26:44.533Z,102201.95
2019-03-20T09:29:18.794Z,102210.60
2019-03-20T09:31:47.716Z,102210.86
2019-03-20T09:34:18.383Z,102206.70
2019-03-20T09:36:49.352Z,102213.31
2019-03-20T09:39:20.199Z,102212.65
2019-03-20T09:41:51.381Z,102222.34
2019-03-20T09:44:22.452Z,102212.45
2019-03-20T09:46:53.373Z,102202.02
2019-03-20T09:49:24.347Z,102206.78
2019-03-20T09:51:54.980Z,102211.07
2019-03-20T09:54:25.682Z,102218.75
2019-03-20T09:56:56.357Z,102213.64
2019-03-20T09:59:27.353Z,102206.45
2019-03-20T10:01:58.023Z,102211.02
2019-03-20T10:04:28.688Z,102218.75
2019-03-20T10:06:59.653Z,102213.02
2019-03-20T10:09:30.310Z,102211.67
2019-03-20T10:12:01.265Z,102202.11
2019-03-20T10:14:31.938Z,102208.02
2019-03-20T10:17:02.893Z,102207.23
2019-03-20T10:19:33.540Z,102211.87
2019-03-20T10:22:04.208Z,102221.19
2019-03-20T10:24:35.196Z,102222.42
2019-03-20T10:27:06.175Z,102218.44
2019-03-20T10:29:37.125Z,102214.36
2019-03-20T10:32:08.051Z,102212.83
2019-03-20T10:34:39.650Z,102218.08
2019-03-20T10:37:10.545Z,102215.63
2019-03-20T10:39:41.499Z,102216.47
2019-03-20T10:42:12.209Z,102214.24
2019-03-20T10:44:43.140Z,102210.66
2019-03-20T10:47:13.844Z,102209.55
2019-03-20T10:49:44.526Z,102219.05
2019-03-20T10:52:15.205Z,102215.73
2019-03-20T10:54:45.865Z,102214.56
2019-03-20T10:57:16.864Z,102201.31
2019-03-20T10:59:48.538Z,102204.91
2019-03-20T11:02:19.182Z,102201.37
2019-03-20T11:04:50.267Z,102208.23
2019-03-20T11:07:21.013Z,102207.23
2019-03-20T11:09:51.709Z,102206.84
2019-03-20T11:12:22.360Z,102197.27
2019-03-20T11:14:53.453Z,102207.06
2019-03-20T11:17:24.154Z,102199.29
2019-03-20T11:19:56.263Z,102195.38
2019-03-20T11:22:27.250Z,102174.53
2019-03-20T11:24:58.909Z,102198.48
2019-03-20T11:27:33.645Z,102187.72
2019-03-20T11:30:27.110Z,102184.09
2019-03-20T11:32:59.207Z,102200.28
2019-03-20T11:35:29.842Z,102197.84
2019-03-20T11:38:01.163Z,102190.48
2019-03-20T11:40:40.355Z,102183.05
2019-03-20T11:43:11.047Z,102185.41
2019-03-20T11:45:41.721Z,102180.80
2019-03-20T11:48:12.674Z,102179.50
2019-03-20T11:50:44.803Z,102178.77
2019-03-20T11:53:15.787Z,102187.20
2019-03-20T11:55:46.936Z,102181.73
2019-03-20T11:58:17.789Z,102178.55
2019-03-20T12:00:48.504Z,102174.12
2019-03-20T12:03:19.187Z,102167.06
2019-03-20T12:05:50.186Z,102158.78
2019-03-20T12:08:22.961Z,102158.59
2019-03-20T12:10:53.648Z,102156.14
2019-03-20T12:13:24.410Z,102159.39
2019-03-20T12:15:55.101Z,102154.11
2019-03-20T12:18:26.082Z,102154.48
2019-03-20T12:20:56.838Z,102157.27
2019-03-20T12:23:27.540Z,102150.17
2019-03-20T12:25:58.197Z,102153.41
2019-03-20T12:28:29.056Z,102148.35
2019-03-20T12:31:00.102Z,102148.75
2019-03-20T12:33:30.771Z,102144.53
2019-03-20T12:36:01.469Z,102153.33
2019-03-20T12:38:32.460Z,102139.20
2019-03-20T12:41:03.181Z,102134.97
2019-03-20T12:43:35.225Z,102134.64
2019-03-20T12:46:06.185Z,102130.45
2019-03-20T12:48:36.847Z,102129.14
2019-03-20T12:51:07.534Z,102126.02
2019-03-20T12:53:38.219Z,102130.82
2019-03-20T12:56:08.914Z,102114.70
2019-03-20T12:58:39.621Z,102113.56
2019-03-20T13:01:10.297Z,102111.50
2019-03-20T13:03:41.260Z,102115.59
2019-03-20T13:06:11.917Z,102106.83
2019-03-20T13:08:42.615Z,102105.28
2019-03-20T13:11:13.522Z,102108.53
2019-03-20T13:13:44.574Z,102102.94
2019-03-20T13:16:15.500Z,102101.28
2019-03-20T13:18:46.590Z,102098.97
2019-03-20T13:21:17.312Z,102096.55
2019-03-20T13:23:48.318Z,102091.82
2019-03-20T13:26:19.043Z,102087.01
2019-03-20T13:28:50.048Z,102090.72
2019-03-20T13:31:24.010Z,102089.77
2019-03-20T13:33:54.673Z,102097.63
2019-03-20T13:36:25.386Z,102099.47
2019-03-20T13:38:56.635Z,102092.95
2019-03-20T13:41:27.439Z,102093.92
2019-03-20T13:43:58.389Z,102095.25
2019-03-20T13:46:29.066Z,102099.38
2019-03-20T13:48:59.757Z,102097.75
2019-03-20T13:51:30.453Z,102111.69
2019-03-20T13:54:01.429Z,102109.03
2019-03-20T13:56:32.087Z,102109.92
2019-03-20T13:59:02.830Z,102112.58
2019-03-20T14:01:33.498Z,102115.54
2019-03-20T14:04:04.395Z,102111.40
2019-03-20T14:06:35.394Z,102112.14
2019-03-20T14:09:08.182Z,102107.34
2019-03-20T14:11:38.855Z,102103.30
2019-03-20T14:14:09.841Z,102101.83
2019-03-20T14:16:40.524Z,102108.29
2019-03-20T14:19:11.809Z,102107.36
2019-03-20T14:21:42.852Z,102108.00
2019-03-20T14:24:13.511Z,102093.92
2019-03-20T14:26:44.527Z,102100.48
2019-03-20T14:29:15.189Z,102095.67
2019-03-20T14:31:46.301Z,102104.28
2019-03-20T14:34:17.258Z,102094.39
2019-03-20T14:36:47.949Z,102088.31
2019-03-20T14:39:19.015Z,102090.35
2019-03-20T14:41:49.734Z,102087.59
2019-03-20T14:44:20.610Z,102092.98
2019-03-20T14:46:51.671Z,102080.92
2019-03-20T14:49:22.431Z,102081.28
2019-03-20T14:51:53.188Z,102077.93
2019-03-20T14:54:23.865Z,102079.84
2019-03-20T14:56:59.526Z,102070.67
2019-03-20T14:59:30.312Z,102074.96
2019-03-20T15:02:01.251Z,102071.06
2019-03-20T15:04:31.936Z,102060.33
2019-03-20T15:07:02.920Z,102058.38
2019-03-20T15:09:33.975Z,102063.05
2019-03-20T15:12:07.468Z,102058.53
2019-03-20T15:14:38.590Z,102063.84
2019-03-20T15:17:09.270Z,102065.02
2019-03-20T15:19:40.226Z,102068.00
2019-03-20T15:22:10.915Z,102072.49
2019-03-20T15:24:41.972Z,102069.61
2019-03-20T15:27:13.080Z,102080.40
2019-03-20T15:29:44.121Z,102079.36
2019-03-20T15:32:14.801Z,102074.74
2019-03-20T15:34:45.786Z,102075.56
2019-03-20T15:37:16.828Z,102076.26
2019-03-20T15:39:47.503Z,102080.06
2019-03-20T15:42:18.498Z,102080.83
2019-03-20T15:44:49.255Z,102078.06
2019-03-20T15:47:20.284Z,102087.94
2019-03-20T15:49:52.511Z,102086.41
2019-03-20T15:52:23.478Z,102097.44
2019-03-20T15:54:54.501Z,102091.28
2019-03-20T15:57:25.554Z,102088.80
2019-03-20T15:59:56.481Z,102098.03
2019-03-20T16:02:27.243Z,102096.05
2019-03-20T16:04:57.904Z,102091.58
2019-03-20T16:07:28.905Z,102091.27
2019-03-20T16:10:00.035Z,102084.70
2019-03-20T16:12:31.190Z,102094.96
2019-03-20T16:15:01.894Z,102088.38
2019-03-20T16:17:33.079Z,102084.34
2019-03-20T16:20:05.579Z,102070.41
2019-03-20T16:22:36.577Z,102078.50
2019-03-20T16:25:12.131Z,102081.64
2019-03-20T16:27:42.857Z,102071.86
2019-03-20T16:30:19.738Z,102076.59
2019-03-20T16:32:51.752Z,102072.36
2019-03-20T16:35:23.142Z,102083.58
2019-03-20T16:37:56.021Z,102083.99
2019-03-20T16:40:36.027Z,102079.36
2019-03-20T16:43:06.912Z,102080.81
2019-03-20T16:45:40.544Z,102089.81
2019-03-20T16:48:11.554Z,102087.32
2019-03-20T16:50:42.251Z,102086.55
2019-03-20T16:53:12.969Z,102087.55
2019-03-20T16:55:50.092Z,102085.86
2019-03-20T16:58:21.126Z,102088.05
2019-03-20T17:00:52.323Z,102087.92
2019-03-20T17:03:23.163Z,102085.88
2019-03-20T17:05:54.406Z,102086.47
2019-03-20T17:08:26.166Z,102088.18
2019-03-20T17:10:57.392Z,102095.21
2019-03-20T17:13:28.438Z,102093.64
2019-03-20T17:15:59.469Z,102090.38
2019-03-20T17:18:30.163Z,102093.89
2019-03-20T17:21:00.830Z,102086.74
2019-03-20T17:23:31.532Z,102089.02
2019-03-20T17:26:03.623Z,102082.13
2019-03-20T17:28:34.289Z,102081.02
2019-03-20T17:31:05.404Z,102086.83
2019-03-20T17:33:36.460Z,102089.02
2019-03-20T17:36:07.174Z,102099.05
2019-03-20T17:38:38.257Z,102109.22
2019-03-20T17:41:09.027Z,102106.43
2019-03-20T17:43:39.736Z,102108.45
2019-03-20T17:46:13.682Z,102113.04
2019-03-20T17:48:44.629Z,102117.86
2019-03-20T17:51:15.668Z,102127.66
2019-03-20T17:53:46.630Z,102136.44
2019-03-20T17:56:17.649Z,102141.66
2019-03-20T17:58:48.566Z,102141.00
2019-03-20T18:01:19.287Z,102133.58
2019-03-20T18:03:50.465Z,102137.91
2019-03-20T18:06:24.499Z,102129.30
2019-03-20T18:08:58.135Z,102130.48
2019-03-20T18:11:28.906Z,102132.30
2019-03-20T18:14:00.621Z,102128.88
2019-03-20T18:16:31.619Z,102138.06
2019-03-20T18:19:02.566Z,102136.81
2019-03-20T18:21:33.646Z,102140.79
2019-03-20T18:24:04.928Z,102148.72
2019-03-20T18:26:35.953Z,102151.33
2019-03-20T18:29:06.849Z,102149.85
2019-03-20T18:31:45.666Z,102149.58
2019-03-20T18:34:10.837Z,102150.95
2019-03-20T18:36:42.536Z,102158.53
2019-03-20T18:39:15.300Z,102156.32
2019-03-20T18:41:46.798Z,102161.58
2019-03-20T18:44:17.520Z,102170.19
2019-03-20T18:46:48.598Z,102172.94
2019-03-20T18:49:20.923Z,102174.75
2019-03-20T18:51:52.071Z,102186.16
2019-03-20T18:54:24.174Z,102180.16
2019-03-20T18:56:56.236Z,102182.84
2019-03-20T18:59:27.213Z,102178.60
2019-03-20T19:01:58.669Z,102184.66
2019-03-20T19:04:29.928Z,102189.05
2019-03-20T19:07:01.122Z,102188.34
2019-03-20T19:09:33.917Z,102197.80
2019-03-20T19:12:08.911Z,102189.37
2019-03-20T19:14:38.470Z,102192.66
2019-03-20T19:17:09.521Z,102194.77
2019-03-20T19:19:42.193Z,102191.34
2019-03-20T19:22:13.178Z,102200.64
2019-03-20T19:24:45.039Z,102204.92
2019-03-20T19:27:16.042Z,102204.84
2019-03-20T19:29:46.942Z,102198.23
2019-03-20T19:32:20.481Z,102198.44
2019-03-20T19:34:53.257Z,102196.87
2019-03-20T19:37:30.829Z,102198.69
2019-03-20T19:40:03.823Z,102199.37
2019-03-20T19:42:35.489Z,102200.21
2019-03-20T19:45:15.303Z,102210.45
2019-03-20T19:47:47.834Z,102206.86
2019-03-20T19:50:22.737Z,102205.91
2019-03-20T19:52:54.272Z,102198.68
2019-03-20T19:55:25.314Z,102213.77
2019-03-20T19:57:56.335Z,102207.99
2019-03-20T20:00:33.092Z,102208.78
2019-03-20T20:03:04.809Z,102208.68
2019-03-20T20:05:35.608Z,102208.04
2019-03-20T20:08:06.528Z,102203.95
2019-03-20T20:10:37.707Z,102204.82
2019-03-20T20:13:09.134Z,102209.47
2019-03-20T20:15:40.278Z,102207.84
2019-03-20T20:18:12.217Z,102206.41
2019-03-20T20:20:43.311Z,102203.48
2019-03-20T20:23:14.710Z,102210.70
2019-03-20T20:25:45.681Z,102210.03
2019-03-20T20:28:16.739Z,102202.73
2019-03-20T20:30:47.660Z,102202.16
2019-03-20T20:33:18.351Z,102207.45
2019-03-20T20:35:49.323Z,102209.45
2019-03-20T20:38:20.525Z,102207.81
2019-03-20T20:40:51.846Z,102211.00
2019-03-20T20:43:22.610Z,102215.28
2019-03-20T20:45:53.653Z,102204.38
2019-03-20T20:48:24.674Z,102207.80
2019-03-20T20:50:55.408Z,102206.48
2019-03-20T20:53:26.343Z,102206.81
2019-03-20T20:55:57.620Z,102207.55
2019-03-20T20:58:28.302Z,102220.33
2019-03-20T21:00:59.273Z,102213.42
2019-03-20T21:03:30.561Z,102210.59
2019-03-20T21:06:01.883Z,102213.83
2019-03-20T21:08:33.018Z,102213.35
2019-03-20T21:11:04.071Z,102215.89
2019-03-20T21:13:35.196Z,102208.88
2019-03-20T21:16:06.522Z,102201.69
2019-03-20T21:18:51.011Z,102204.34
2019-03-20T21:21:22.185Z,102216.75
2019-03-20T21:24:23.136Z,102221.25
2019-03-20T21:27:10.441Z,102226.66
2019-03-20T21:29:54.455Z,102226.25
2019-03-20T21:32:49.377Z,102227.45
2019-03-20T21:36:08.726Z,102226.37
2019-03-20T21:38:39.380Z,102228.61
2019-03-20T21:41:29.173Z,102236.27
2019-03-20T21:44:28.942Z,102230.84
2019-03-20T21:47:23.241Z,102238.22
2019-03-20T21:49:54.158Z,102229.45
2019-03-20T21:52:24.844Z,102225.47
2019-03-20T21:55:24.374Z,102229.84
2019-03-20T21:58:02.294Z,102235.41
2019-03-20T22:01:00.540Z,102240.11
2019-03-20T22:03:32.523Z,102242.94
2019-03-20T22:06:08.047Z,102240.47
2019-03-20T22:08:38.999Z,102247.30
2019-03-20T22:11:33.517Z,102248.62
2019-03-20T22:14:13.377Z,102249.56
2019-03-20T22:17:10.321Z,102247.41
2019-03-20T22:19:54.234Z,102246.92
2019-03-20T22:22:42.388Z,102254.53
2019-03-20T22:25:34.942Z,102260.66
2019-03-20T22:28:59.315Z,102258.40
2019-03-20T22:31:33.693Z,102261.54
2019-03-20T22:34:33.827Z,102261.79
2019-03-20T22:37:04.575Z,102261.29
2019-03-20T22:40:08.346Z,102261.81
2019-03-20T22:43:00.234Z,102268.18
2019-03-20T22:46:06.551Z,102264.45
2019-03-20T22:49:14.898Z,102260.61
2019-03-20T22:52:13.883Z,102269.36
2019-03-20T22:55:17.955Z,102272.07
2019-03-20T22:58:27.611Z,102279.02
2019-03-20T23:01:02.455Z,102291.84
2019-03-20T23:03:57.065Z,102289.12
2019-03-20T23:06:28.084Z,102285.38
2019-03-20T23:08:58.776Z,102286.82
2019-03-20T23:11:29.534Z,102288.88
2019-03-20T23:14:00.277Z,102287.02
2019-03-20T23:16:31.261Z,102294.02
2019-03-20T23:19:02.199Z,102292.86
2019-03-20T23:21:33.108Z,102300.30
2019-03-20T23:24:03.880Z,102305.69
2019-03-20T23:26:34.565Z,102306.23
2019-03-20T23:29:05.662Z,102304.16
2019-03-20T23:31:36.656Z,102307.72
2019-03-20T23:34:07.799Z,102307.25
2019-03-20T23:36:39.890Z,102311.44
2019-03-20T23:39:10.747Z,102316.56
2019-03-20T23:41:41.818Z,102315.41
2019-03-20T23:44:12.933Z,102308.18
2019-03-20T23:46:43.663Z,102309.45
2019-03-20T23:49:19.493Z,102316.23
2019-03-20T23:51:50.426Z,102318.54
2019-03-20T23:54:26.410Z,102313.27
2019-03-20T23:56:57.355Z,102303.47
2019-03-20T23:59:28.353Z,102310.98
